Time;durP1;ratioP1;P1;durP2;ratioP2;P2;SDS_P1;SDS_P2;PMS_P1;PMS_P2;Temp;Humidity;BMP_temperature;BMP_pressure;BME280_temperature;BME280_humidity;BME280_pressure;Samples;Min_cycle;Max_cycle;Signal;HPM_P1;HPM_P2
2022/06/22 00:01:44;;;;;;;132.35;125.07;;;;;;;22.23;70.53;96194.56;5072890;28;20181;-67
2022/06/22 00:04:32;;;;;;;102.85;97.32;;;;;;;22.19;70.86;96188.28;5072932;28;20181;-67
2022/06/22 00:07:03;;;;;;;86.97;82.10;;;;;;;22.16;70.90;96187.03;5072986;28;20262;-67
2022/06/22 00:09:33;;;;;;;91.72;86.40;;;;;;;22.32;70.63;96187.31;5072104;28;20264;-67
2022/06/22 00:11:59;;;;;;;146.32;138.27;;;;;;;22.24;71.39;96180.88;5072725;28;20173;-67
2022/06/22 00:14:44;;;;;;;165.75;156.77;;;;;;;22.16;72.06;96171.00;5072827;28;20177;-67
2022/06/22 00:17:39;;;;;;;190.63;180.10;;;;;;;22.21;71.70;96160.16;5072548;28;20177;-67
2022/06/22 00:20:04;;;;;;;204.75;193.48;;;;;;;22.11;72.27;96157.03;5051412;28;20314;-67
2022/06/22 00:22:30;;;;;;;203.55;192.32;;;;;;;22.02;72.95;96140.22;5072926;28;20274;-67
2022/06/22 00:25:10;;;;;;;200.60;189.73;;;;;;;22.24;72.15;96140.03;5072662;28;20243;-68
2022/06/22 00:27:36;;;;;;;156.35;147.85;;;;;;;22.25;71.93;96122.94;5072039;28;20180;-67
2022/06/22 00:30:18;;;;;;;139.20;131.65;;;;;;;22.39;71.29;96118.22;5072296;28;20384;-67
2022/06/22 00:32:59;;;;;;;156.18;147.65;;;;;;;22.24;72.17;96110.69;5072611;28;20173;-67
2022/06/22 00:35:47;;;;;;;215.63;204.32;;;;;;;22.03;73.39;96107.09;5072151;28;20175;-67
2022/06/22 00:38:27;;;;;;;302.63;286.42;;;;;;;22.05;73.46;96111.03;5070232;28;20205;-67
2022/06/22 00:40:56;;;;;;;419.90;396.30;;;;;;;22.27;72.54;96115.41;5072325;28;20617;-67
2022/06/22 00:43:26;;;;;;;466.45;439.77;;;;;;;22.10;73.38;96113.53;5054830;28;20181;-67
2022/06/22 00:45:52;;;;;;;454.33;427.63;;;;;;;22.05;73.72;96116.38;5055228;28;20173;-67
2022/06/22 00:48:30;;;;;;;505.58;474.48;;;;;;;22.26;73.07;96119.94;5072728;28;20290;-67
2022/06/22 00:51:00;;;;;;;458.70;430.00;;;;;;;21.76;74.64;96116.97;5054926;28;20320;-67
2022/06/22 00:53:37;;;;;;;348.75;327.90;;;;;;;22.00;74.35;96123.75;5072272;28;20173;-67
2022/06/22 00:56:14;;;;;;;340.42;320.98;;;;;;;22.09;74.22;96127.19;5072251;28;20186;-67
2022/06/22 00:59:04;;;;;;;354.15;334.48;;;;;;;21.91;74.52;96134.41;5072162;28;20580;-67
2022/06/22 01:01:44;;;;;;;270.48;256.02;;;;;;;22.04;74.32;96128.16;5054314;28;20245;-67
2022/06/22 01:04:20;;;;;;;423.48;398.77;;;;;;;21.77;76.13;96133.78;5072208;28;20177;-67
2022/06/22 01:06:55;;;;;;;479.00;450.55;;;;;;;21.57;77.43;96133.28;5072109;28;20180;-68
2022/06/22 01:09:32;;;;;;;161.45;152.43;;;;;;;21.80;76.97;96133.13;5071562;28;20192;-67
2022/06/22 01:12:16;;;;;;;110.63;104.35;;;;;;;21.63;78.52;96131.25;5072008;28;20660;-68
2022/06/22 01:14:51;;;;;;;99.50;93.97;;;;;;;21.56;78.92;96139.75;5072180;28;20657;-67
2022/06/22 01:17:35;;;;;;;97.47;91.88;;;;;;;21.65;79.25;96155.75;5072241;28;20177;-67
2022/06/22 01:20:14;;;;;;;93.18;87.95;;;;;;;21.62;79.59;96155.59;5071882;28;20203;-67
2022/06/22 01:23:12;;;;;;;160.68;151.55;;;;;;;21.69;79.96;96150.56;5071453;28;20530;-67
2022/06/22 01:25:45;;;;;;;368.40;346.50;;;;;;;21.68;80.58;96151.69;5072559;28;20189;-67
2022/06/22 01:28:12;;;;;;;447.73;420.05;;;;;;;21.65;81.31;96158.41;5071902;28;20181;-67
2022/06/22 01:30:52;;;;;;;294.73;276.92;;;;;;;21.77;81.19;96147.13;5071619;28;20563;-67
2022/06/22 01:33:35;;;;;;;294.65;277.88;;;;;;;21.55;81.96;96154.16;5072328;28;20177;-67
2022/06/22 01:36:09;;;;;;;317.95;299.10;;;;;;;21.49;81.54;96147.41;5071760;28;20189;-67
2022/06/22 01:38:38;;;;;;;311.85;294.00;;;;;;;21.24;82.76;96160.66;5069160;28;20239;-67
2022/06/22 01:41:33;;;;;;;308.95;291.48;;;;;;;21.40;81.83;96156.50;5072172;28;20185;-67
2022/06/22 01:44:33;;;;;;;305.35;288.15;;;;;;;21.32;82.35;96162.56;5075569;28;20174;-68
2022/06/22 01:47:11;;;;;;;299.88;283.35;;;;;;;21.37;82.19;96168.56;5075560;28;20189;-68
2022/06/22 01:50:01;;;;;;;306.98;290.17;;;;;;;21.50;81.38;96167.66;5075638;28;20254;-67
2022/06/22 01:52:57;;;;;;;306.48;289.70;;;;;;;21.48;81.45;96167.16;5074674;28;20246;-68
2022/06/22 01:55:31;;;;;;;329.80;312.05;;;;;;;21.36;82.78;96177.63;5075483;28;20173;-68
2022/06/22 01:58:15;;;;;;;399.25;377.50;;;;;;;21.36;83.23;96182.19;5073201;28;20180;-69
2022/06/22 02:01:05;;;;;;;403.77;381.80;;;;;;;21.60;82.15;96182.56;5075454;28;20199;-67
2022/06/22 02:03:40;;;;;;;441.90;417.67;;;;;;;21.47;83.51;96178.94;5074241;28;20197;-68
2022/06/22 02:09:54;;;;;;;339.50;320.65;;;;;;;21.40;84.12;96167.16;4970037;28;20296;-67
2022/06/22 02:12:26;;;;;;;375.77;355.10;;;;;;;21.78;82.28;96138.03;4974444;28;20186;-67
2022/06/22 02:15:17;;;;;;;434.35;410.50;;;;;;;21.71;82.78;96119.81;4973737;28;20252;-67
2022/06/22 02:17:44;;;;;;;458.67;433.40;;;;;;;21.60;83.44;96112.44;4972336;28;20213;-67
2022/06/22 02:20:19;;;;;;;494.85;466.88;;;;;;;21.46;84.18;96100.00;4973876;28;20220;-67
2022/06/22 02:22:49;;;;;;;523.75;491.65;;;;;;;21.53;84.34;96113.69;4973914;28;20443;-67
2022/06/22 02:25:17;;;;;;;509.52;478.15;;;;;;;21.39;84.93;96129.03;4973356;28;20200;-68
2022/06/22 02:27:43;;;;;;;517.47;485.65;;;;;;;21.39;84.95;96145.03;4974033;28;20221;-67
2022/06/22 02:30:09;;;;;;;536.88;503.88;;;;;;;21.38;85.08;96148.81;4973751;28;20228;-67
2022/06/22 02:32:40;;;;;;;535.40;502.95;;;;;;;21.42;85.13;96146.28;4973958;28;20204;-67
2022/06/22 02:35:09;;;;;;;532.22;501.00;;;;;;;21.42;85.33;96144.41;4973486;28;20188;-68
2022/06/22 02:37:40;;;;;;;510.30;480.30;;;;;;;21.43;85.19;96150.53;4973060;28;20185;-68
2022/06/22 02:40:11;;;;;;;520.35;491.13;;;;;;;21.64;84.21;96164.84;5030472;28;20225;-67
2022/06/22 02:45:22;;;;;;;523.65;490.85;;;;;;;21.52;86.48;96148.66;5074391;28;20173;-67
2022/06/22 02:47:59;;;;;;;398.98;375.17;;;;;;;21.60;86.54;96158.56;5074693;28;20173;-67
2022/06/22 02:50:40;;;;;;;415.88;392.25;;;;;;;21.76;86.70;96156.22;5074416;28;20654;-67
2022/06/22 02:53:15;;;;;;;469.25;441.60;;;;;;;21.35;93.46;96157.41;5072644;28;20226;-67
2022/06/22 02:55:40;;;;;;;344.20;324.20;;;;;;;21.38;90.88;96161.34;5074934;28;20184;-67
2022/06/22 02:58:26;;;;;;;394.75;371.20;;;;;;;21.17;92.17;96155.03;5073978;28;20181;-67
2022/06/22 03:00:54;;;;;;;343.02;323.90;;;;;;;20.87;98.33;96146.72;5073979;28;20197;-68
2022/06/22 03:03:20;;;;;;;398.23;375.85;;;;;;;21.04;96.60;96138.00;5073569;28;20646;-67
2022/06/22 03:05:51;;;;;;;433.88;408.75;;;;;;;21.14;95.23;96129.72;5074043;28;20188;-67
2022/06/22 03:08:18;;;;;;;266.35;251.70;;;;;;;21.28;95.29;96130.44;5072288;28;20768;-68
2022/06/22 03:10:55;;;;;;;229.20;216.50;;;;;;;21.36;94.95;96140.31;5074050;28;20224;-68
2022/06/22 03:13:25;;;;;;;254.77;240.93;;;;;;;21.19;94.60;96148.28;5073847;28;20177;-67
2022/06/22 03:15:51;;;;;;;410.38;386.67;;;;;;;21.18;95.31;96153.94;5073951;28;20177;-68
2022/06/22 03:18:24;;;;;;;305.33;288.83;;;;;;;21.08;97.41;96155.72;5073547;28;20683;-67
2022/06/22 03:21:00;;;;;;;307.88;290.88;;;;;;;21.07;96.12;96161.38;5074142;28;20189;-67
2022/06/22 03:23:52;;;;;;;450.80;424.50;;;;;;;21.20;94.89;96152.50;5073449;28;20173;-67
2022/06/22 03:26:20;;;;;;;428.02;402.90;;;;;;;21.06;94.79;96141.16;5073498;28;20181;-67
2022/06/22 03:29:10;;;;;;;456.13;429.02;;;;;;;21.36;92.53;96140.31;5073607;28;20188;-67
2022/06/22 03:31:44;;;;;;;390.05;367.42;;;;;;;21.12;93.59;96138.03;5074070;28;20492;-68
2022/06/22 03:34:15;;;;;;;402.02;378.80;;;;;;;21.07;94.35;96154.16;5073579;28;20186;-68
2022/06/22 03:36:45;;;;;;;420.48;396.58;;;;;;;21.16;93.93;96151.56;5070251;28;20261;-68
2022/06/22 03:39:16;;;;;;;356.30;336.48;;;;;;;21.33;92.83;96142.81;5073541;28;20244;-67
2022/06/22 03:41:48;;;;;;;253.27;239.82;;;;;;;21.24;93.77;96134.78;5073862;28;20265;-67
2022/06/22 03:44:23;;;;;;;249.07;235.70;;;;;;;20.97;95.95;96138.44;5073062;28;20175;-68
2022/06/22 03:46:54;;;;;;;299.45;283.50;;;;;;;21.15;95.25;96134.00;5056001;28;20191;-67
2022/06/22 03:49:32;;;;;;;294.05;277.52;;;;;;;20.98;96.92;96137.38;5072897;28;20591;-68
2022/06/22 03:52:15;;;;;;;373.92;352.92;;;;;;;21.13;96.77;96128.94;5072747;28;20644;-68
2022/06/22 03:55:13;;;;;;;473.88;446.08;;;;;;;21.17;96.67;96131.03;5072755;28;20174;-68
2022/06/22 03:57:43;;;;;;;518.92;488.58;;;;;;;20.99;98.41;96143.47;5072584;28;20197;-67
2022/06/22 04:00:11;;;;;;;413.27;389.48;;;;;;;21.17;97.31;96133.69;5073180;28;20197;-67
2022/06/22 04:02:37;;;;;;;352.50;332.98;;;;;;;21.21;97.23;96140.75;5073245;28;20239;-67
2022/06/22 04:05:04;;;;;;;335.70;316.95;;;;;;;21.27;96.76;96147.53;5072226;28;20189;-69
2022/06/22 04:07:39;;;;;;;299.45;282.90;;;;;;;21.61;93.95;96151.34;5071892;28;20224;-68
2022/06/22 04:10:13;;;;;;;297.17;280.77;;;;;;;21.37;94.99;96152.56;5072962;28;20279;-68
2022/06/22 04:12:44;;;;;;;432.58;408.02;;;;;;;21.54;94.67;96155.25;5073586;28;20536;-68
2022/06/22 04:15:33;;;;;;;401.02;378.20;;;;;;;21.65;93.82;96146.94;5072512;28;20181;-68
2022/06/22 04:18:05;;;;;;;406.15;382.92;;;;;;;21.80;93.10;96149.94;5072685;28;20250;-68
2022/06/22 04:20:52;;;;;;;447.95;421.27;;;;;;;22.16;91.23;96146.97;5072878;28;20224;-68
2022/06/22 04:23:27;;;;;;;472.95;444.73;;;;;;;21.76;92.48;96154.34;5072806;28;20255;-68
2022/06/22 04:25:57;;;;;;;504.27;474.58;;;;;;;21.86;91.97;96150.56;5072932;28;20184;-69
2022/06/22 04:28:25;;;;;;;517.40;487.00;;;;;;;21.71;92.46;96149.16;5072150;28;20182;-68
2022/06/22 04:30:54;;;;;;;524.60;493.02;;;;;;;21.97;91.22;96151.84;5072543;28;20661;-68
2022/06/22 04:33:43;;;;;;;533.75;501.48;;;;;;;22.19;90.21;96161.56;5054634;28;20541;-68
2022/06/22 04:36:19;;;;;;;522.58;491.48;;;;;;;21.98;90.60;96151.53;5070374;28;20189;-67
2022/06/22 04:38:52;;;;;;;541.35;508.75;;;;;;;21.87;90.78;96158.25;5072106;28;20228;-68
2022/06/22 04:41:33;;;;;;;541.83;508.63;;;;;;;21.87;90.62;96165.47;5072517;28;20184;-68
2022/06/22 04:44:05;;;;;;;525.38;493.83;;;;;;;21.92;90.09;96168.78;5072545;28;20185;-69
2022/06/22 04:46:39;;;;;;;532.60;501.30;;;;;;;22.01;89.39;96168.81;5057931;28;20204;-68
2022/06/22 04:49:28;;;;;;;527.53;495.92;;;;;;;21.80;89.80;96173.94;5072348;28;20188;-69
2022/06/22 04:52:18;;;;;;;511.77;481.67;;;;;;;21.71;89.87;96177.72;5071649;28;20266;-69
2022/06/22 04:54:45;;;;;;;493.20;464.20;;;;;;;21.67;90.00;96176.78;5072117;28;20201;-68
2022/06/22 04:57:28;;;;;;;521.05;489.73;;;;;;;21.77;89.54;96179.13;5072133;28;20215;-68
2022/06/22 04:59:55;;;;;;;497.67;467.50;;;;;;;21.65;90.20;96184.28;5072585;28;20189;-68
2022/06/22 05:02:27;;;;;;;508.63;478.70;;;;;;;22.14;87.92;96188.44;5072476;28;20193;-68
2022/06/22 05:04:58;;;;;;;495.17;466.27;;;;;;;22.10;87.28;96190.94;5072102;28;20181;-68
2022/06/22 05:07:49;;;;;;;498.73;468.55;;;;;;;22.49;84.26;96184.63;5067185;28;20242;-68
2022/06/22 05:10:35;;;;;;;513.72;482.42;;;;;;;22.03;85.74;96177.28;5072403;28;20185;-68
2022/06/22 05:13:10;;;;;;;477.23;448.90;;;;;;;22.22;84.77;96180.44;5071934;28;20181;-68
2022/06/22 05:15:39;;;;;;;484.85;455.27;;;;;;;22.22;85.29;96175.09;5072368;28;20173;-68
2022/06/22 05:18:17;;;;;;;523.25;491.02;;;;;;;22.42;84.18;96176.31;5076310;28;20707;-67
2022/06/22 05:20:53;;;;;;;523.58;490.98;;;;;;;22.62;82.46;96170.31;5076399;28;20271;-68
2022/06/22 05:23:21;;;;;;;499.75;469.60;;;;;;;22.36;84.29;96169.56;5075792;28;20626;-68
2022/06/22 05:25:50;;;;;;;350.20;329.98;;;;;;;22.54;83.26;96167.66;5076316;28;20184;-68
2022/06/22 05:28:32;;;;;;;460.67;433.50;;;;;;;22.88;83.20;96174.81;5076341;28;20575;-67
2022/06/22 05:31:05;;;;;;;292.90;276.67;;;;;;;23.01;82.01;96174.63;5075663;28;20169;-68
2022/06/22 05:33:33;;;;;;;281.20;265.42;;;;;;;23.41;79.48;96187.63;5075455;28;20260;-68
2022/06/22 05:36:04;;;;;;;318.88;300.33;;;;;;;23.60;77.10;96196.84;5073501;28;20190;-69
2022/06/22 05:38:30;;;;;;;613.53;571.70;;;;;;;24.17;73.60;96195.50;5075495;28;20286;-66
2022/06/22 05:40:56;;;;;;;446.77;418.98;;;;;;;24.00;74.55;96194.53;5075593;28;20201;-66
2022/06/22 05:43:22;;;;;;;447.65;420.95;;;;;;;24.15;73.10;96205.75;5075632;28;20239;-66
2022/06/22 05:45:54;;;;;;;300.83;283.48;;;;;;;23.89;74.17;96205.97;5075753;28;20234;-66
2022/06/22 05:48:23;;;;;;;262.65;247.32;;;;;;;24.28;70.46;96210.09;5075415;28;20210;-66
2022/06/22 05:51:04;;;;;;;272.33;257.15;;;;;;;24.17;70.68;96208.91;5075693;28;20272;-66
2022/06/22 05:53:44;;;;;;;260.15;245.93;;;;;;;24.20;71.06;96203.69;5074387;28;20181;-66
2022/06/22 05:56:22;;;;;;;255.45;241.60;;;;;;;23.86;71.89;96203.91;5075289;28;20195;-66
2022/06/22 05:58:58;;;;;;;214.57;202.85;;;;;;;24.04;71.85;96208.84;5075879;28;20181;-67
2022/06/22 06:01:49;;;;;;;225.55;213.40;;;;;;;23.92;71.72;96210.66;5074978;28;20192;-66
2022/06/22 06:04:33;;;;;;;232.05;219.65;;;;;;;24.14;70.89;96213.00;5070850;28;20197;-67
2022/06/22 06:07:06;;;;;;;212.02;200.73;;;;;;;24.30;71.12;96214.00;5074319;28;20310;-67
2022/06/22 06:09:33;;;;;;;218.88;207.07;;;;;;;24.01;72.87;96216.75;5075206;28;20182;-67
2022/06/22 06:12:34;;;;;;;406.38;383.35;;;;;;;23.84;74.40;96227.56;5075036;28;20186;-67
2022/06/22 06:15:02;;;;;;;507.27;478.42;;;;;;;23.20;78.13;96217.00;5031738;28;20216;-68
2022/06/22 06:17:41;;;;;;;437.20;412.42;;;;;;;23.22;79.10;96220.16;5075114;28;20223;-68
2022/06/22 06:20:18;;;;;;;560.67;526.85;;;;;;;23.45;78.51;96215.31;5074228;28;20205;-68
2022/06/22 06:22:43;;;;;;;555.75;522.42;;;;;;;23.42;79.25;96230.13;5074188;28;20181;-69
2022/06/22 06:28:12;;;;;;;818.58;758.45;;;;;;;23.52;78.63;96232.44;5073121;28;20172;-68
2022/06/22 06:30:46;;;;;;;789.47;731.80;;;;;;;23.25;80.07;96238.22;5074902;28;20635;-68
2022/06/22 06:33:18;;;;;;;584.58;548.05;;;;;;;22.84;84.14;96246.06;5074407;28;20657;-68
2022/06/22 06:36:06;;;;;;;403.33;380.30;;;;;;;22.91;84.32;96255.13;5072810;28;20265;-68
2022/06/22 06:38:38;;;;;;;504.33;471.80;;;;;;;22.98;84.78;96250.09;5059263;28;20293;-68
2022/06/22 06:41:08;;;;;;;205.20;193.65;;;;;;;22.72;85.81;96257.41;5074674;28;20197;-68
2022/06/22 06:43:46;;;;;;;401.42;377.77;;;;;;;22.72;88.04;96260.06;5074711;28;20280;-68
2022/06/22 06:46:38;;;;;;;544.70;511.02;;;;;;;22.63;88.97;96245.88;5073936;28;20307;-68
2022/06/22 06:49:29;;;;;;;477.08;449.65;;;;;;;22.40;90.72;96255.97;5052722;28;20634;-69
2022/06/22 06:52:03;;;;;;;658.70;618.90;;;;;;;22.57;89.19;96260.53;5074231;28;20248;-69
2022/06/22 06:54:37;;;;;;;565.38;530.45;;;;;;;22.24;94.40;96269.00;5074171;28;20315;-70
2022/06/22 06:57:11;;;;;;;704.78;661.72;;;;;;;22.25;96.62;96267.91;5073550;28;20185;-69
2022/06/22 06:59:39;;;;;;;611.83;576.03;;;;;;;22.33;93.99;96269.81;5074186;28;20205;-69
2022/06/22 07:02:17;;;;;;;473.63;444.95;;;;;;;22.29;94.26;96268.84;5056641;28;20560;-68
2022/06/22 07:04:44;;;;;;;402.88;379.27;;;;;;;21.83;96.20;96279.28;5074636;28;20212;-68
2022/06/22 07:07:32;;;;;;;374.23;353.02;;;;;;;21.70;99.57;96282.84;5071811;28;20185;-70
2022/06/22 07:10:02;;;;;;;331.48;313.40;;;;;;;21.72;99.85;96278.00;5071309;28;20193;-70
2022/06/22 07:12:51;;;;;;;426.55;402.60;;;;;;;21.56;100.00;96278.44;5073191;28;20177;-69
2022/06/22 07:15:20;;;;;;;475.45;447.63;;;;;;;21.66;99.21;96280.03;5073874;28;20556;-68
2022/06/22 07:17:50;;;;;;;559.08;526.20;;;;;;;21.40;100.00;96269.25;5073429;28;20638;-68
2022/06/22 07:20:35;;;;;;;326.60;308.38;;;;;;;21.45;100.00;96269.13;5072707;28;20205;-68
2022/06/22 07:23:23;;;;;;;400.83;377.35;;;;;;;21.37;100.00;96269.09;5073523;28;20619;-70
2022/06/22 07:25:57;;;;;;;257.50;243.52;;;;;;;20.87;100.00;96271.94;5069308;28;20182;-67
2022/06/22 07:28:33;;;;;;;289.75;273.48;;;;;;;20.45;100.00;96267.13;5072844;28;20633;-67
2022/06/22 07:31:18;;;;;;;172.93;163.15;;;;;;;20.10;100.00;96258.81;5073634;28;20202;-67
2022/06/22 07:34:13;;;;;;;169.15;159.43;;;;;;;19.94;100.00;96246.94;5072759;28;20609;-67
2022/06/22 07:36:44;;;;;;;116.25;109.50;;;;;;;19.86;100.00;96250.28;5065639;28;20193;-67
2022/06/22 07:39:13;;;;;;;186.50;176.07;;;;;;;19.87;100.00;96247.34;5072854;28;20285;-68
2022/06/22 07:41:38;;;;;;;172.48;162.80;;;;;;;19.89;100.00;96245.16;5068670;28;20182;-67
2022/06/22 07:44:19;;;;;;;215.40;203.63;;;;;;;20.01;100.00;96239.31;5072721;28;20623;-67
2022/06/22 07:46:44;;;;;;;154.20;145.38;;;;;;;19.86;100.00;96239.66;5072472;28;20192;-67
2022/06/22 07:49:18;;;;;;;137.45;129.88;;;;;;;19.96;100.00;96247.41;5072360;28;20169;-67
2022/06/22 07:51:55;;;;;;;132.82;125.25;;;;;;;20.16;100.00;96241.66;5072708;28;20585;-67
2022/06/22 07:54:28;;;;;;;280.48;264.50;;;;;;;20.23;100.00;96243.88;5072207;28;20602;-68
2022/06/22 07:57:10;;;;;;;331.45;312.52;;;;;;;20.45;100.00;96251.16;5072419;28;20178;-67
2022/06/22 07:59:54;;;;;;;309.45;292.02;;;;;;;20.90;100.00;96260.66;5073208;28;20323;-68
2022/06/22 08:02:25;;;;;;;425.73;400.55;;;;;;;20.88;94.69;96268.19;5072826;28;20166;-67
2022/06/22 08:04:53;;;;;;;323.40;305.00;;;;;;;20.88;91.73;96265.53;5072197;28;20543;-68
2022/06/22 08:07:28;;;;;;;320.40;302.27;;;;;;;21.35;91.46;96264.06;5067799;28;20195;-67
2022/06/22 08:10:10;;;;;;;400.42;376.85;;;;;;;21.26;86.53;96270.44;5072071;28;20185;-68
2022/06/22 08:13:06;;;;;;;344.55;324.90;;;;;;;21.63;88.57;96263.84;5072603;28;20252;-67
2022/06/22 08:15:38;;;;;;;348.75;329.17;;;;;;;21.58;84.39;96262.09;5072306;28;20281;-68
2022/06/22 08:18:04;;;;;;;312.38;294.67;;;;;;;21.44;83.66;96264.09;5072883;28;20173;-68
2022/06/22 08:20:33;;;;;;;292.08;275.38;;;;;;;21.28;84.36;96266.41;5072967;28;20661;-68
2022/06/22 08:23:01;;;;;;;265.48;250.95;;;;;;;21.75;81.26;96262.16;5072515;28;20185;-68
2022/06/22 08:25:26;;;;;;;130.52;122.78;;;;;;;22.00;79.91;96260.66;5072283;28;20238;-68
2022/06/22 08:27:54;;;;;;;127.00;120.05;;;;;;;22.02;81.61;96260.34;5072148;28;20188;-68
2022/06/22 08:30:20;;;;;;;113.15;106.70;;;;;;;21.89;79.97;96268.16;5054673;28;20200;-68
2022/06/22 08:32:58;;;;;;;136.35;128.57;;;;;;;21.41;82.82;96251.38;5054561;28;20181;-68
2022/06/22 08:35:26;;;;;;;147.02;138.40;;;;;;;21.68;80.80;96256.47;5051724;28;20181;-67
2022/06/22 08:38:24;;;;;;;112.18;105.65;;;;;;;21.68;81.76;96253.03;5072597;28;20181;-69
2022/06/22 08:41:27;;;;;;;123.97;117.18;;;;;;;21.66;82.12;96263.22;5054437;28;20557;-68
2022/06/22 08:44:17;;;;;;;112.72;106.38;;;;;;;21.84;83.79;96267.53;5072369;28;20275;-68
2022/06/22 08:46:49;;;;;;;132.50;125.28;;;;;;;22.28;81.19;96261.94;5072288;28;20189;-69
2022/06/22 08:49:37;;;;;;;127.90;120.97;;;;;;;22.18;80.89;96264.91;5071411;28;20193;-70
2022/06/22 08:52:02;;;;;;;168.38;158.98;;;;;;;22.05;78.40;96271.19;5071443;28;20217;-67
2022/06/22 08:54:27;;;;;;;122.22;114.90;;;;;;;22.10;78.26;96272.91;5071970;28;20258;-67
2022/06/22 08:57:11;;;;;;;109.63;103.30;;;;;;;22.12;78.67;96273.41;5053972;28;20192;-69
2022/06/22 09:00:18;;;;;;;114.15;107.65;;;;;;;22.25;78.92;96275.13;5064410;28;20555;-69
2022/06/22 09:02:54;;;;;;;122.07;115.00;;;;;;;22.27;80.08;96280.94;5049500;28;20650;-69
2022/06/22 09:05:58;;;;;;;118.60;111.75;;;;;;;22.51;81.12;96283.16;5071891;28;20220;-68
2022/06/22 09:08:42;;;;;;;158.80;149.80;;;;;;;22.70;78.92;96286.28;5068425;28;20219;-69
2022/06/22 09:11:20;;;;;;;157.55;148.45;;;;;;;22.66;78.39;96291.47;5072193;28;20177;-68
2022/06/22 09:14:07;;;;;;;128.23;120.60;;;;;;;23.14;79.19;96293.94;5070815;28;20262;-69
2022/06/22 09:16:48;;;;;;;149.20;140.98;;;;;;;22.97;81.66;96295.84;5037473;28;20195;-68
2022/06/22 09:19:26;;;;;;;159.60;150.65;;;;;;;22.78;83.04;96296.22;5054009;28;20329;-68
2022/06/22 09:22:19;;;;;;;161.40;151.98;;;;;;;23.09;81.04;96296.00;5071284;28;20265;-69
2022/06/22 09:24:58;;;;;;;186.55;176.00;;;;;;;22.90;85.39;96303.59;5072067;28;20264;-68
2022/06/22 09:27:35;;;;;;;193.65;182.60;;;;;;;23.11;84.58;96293.78;5071694;28;20181;-68
2022/06/22 09:30:00;;;;;;;171.23;161.38;;;;;;;22.75;85.57;96297.63;5059503;28;20242;-68
2022/06/22 09:32:55;;;;;;;176.57;166.93;;;;;;;22.85;82.89;96291.16;5071692;28;20186;-68
2022/06/22 09:35:39;;;;;;;167.50;158.07;;;;;;;22.98;79.39;96287.53;5052058;28;20661;-68
2022/06/22 09:38:50;;;;;;;149.73;141.35;;;;;;;22.97;79.61;96288.63;5071898;28;20569;-68
2022/06/22 09:41:27;;;;;;;148.18;140.13;;;;;;;23.20;79.11;96283.84;5071515;28;20213;-68
2022/06/22 09:44:01;;;;;;;134.85;127.30;;;;;;;23.17;81.18;96281.81;5071076;28;20181;-68
2022/06/22 09:47:03;;;;;;;171.50;161.80;;;;;;;23.30;81.17;96290.72;5071852;28;20208;-67
2022/06/22 09:49:46;;;;;;;184.38;174.05;;;;;;;23.31;81.25;96289.63;5070870;28;20285;-68
2022/06/22 09:52:38;;;;;;;168.85;159.45;;;;;;;22.90;82.51;96291.00;5070937;28;20646;-68
2022/06/22 09:58:35;;;;;;;160.07;151.10;;;;;;;23.02;82.70;96291.13;5068528;28;20189;-68
2022/06/22 10:01:17;;;;;;;159.38;150.60;;;;;;;23.37;80.96;96288.34;5071292;28;20676;-67
2022/06/22 10:04:20;;;;;;;145.45;137.27;;;;;;;22.94;81.73;96294.63;5054984;28;20188;-68
2022/06/22 10:07:11;;;;;;;161.90;153.07;;;;;;;22.93;81.26;96301.06;5069534;28;20224;-67
2022/06/22 10:09:52;;;;;;;180.65;170.73;;;;;;;23.19;79.08;96309.03;5074711;28;20618;-68
2022/06/22 10:12:35;;;;;;;184.80;174.65;;;;;;;22.95;80.72;96311.44;5075124;28;20260;-68
2022/06/22 10:15:38;;;;;;;191.40;180.82;;;;;;;22.87;81.66;96320.25;5074780;28;20594;-68
2022/06/22 10:18:34;;;;;;;170.40;160.80;;;;;;;22.86;80.89;96329.38;5073781;28;20188;-68
2022/06/22 10:21:12;;;;;;;186.77;176.63;;;;;;;22.93;80.39;96340.38;5074086;28;20284;-68
2022/06/22 10:23:40;;;;;;;283.30;268.48;;;;;;;22.80;80.17;96353.56;5056058;28;20174;-68
2022/06/22 10:26:18;;;;;;;257.15;243.32;;;;;;;22.88;78.92;96354.69;5074249;28;20181;-68
2022/06/22 10:28:58;;;;;;;142.75;134.60;;;;;;;22.98;81.47;96362.38;5074994;28;20185;-68
2022/06/22 10:31:52;;;;;;;235.35;222.18;;;;;;;22.60;93.27;96359.53;5074370;28;20181;-68
2022/06/22 10:34:56;;;;;;;296.63;280.38;;;;;;;22.53;95.51;96364.53;5035133;28;20556;-67
2022/06/22 10:38:00;;;;;;;340.55;319.55;;;;;;;22.26;98.75;96367.50;5074651;28;20242;-68
2022/06/22 10:47:13;;;;;;;613.20;574.53;;;;;;;21.62;100.00;96358.31;5074420;28;20181;-68
2022/06/22 10:50:01;;;;;;;502.30;471.98;;;;;;;21.48;100.00;96361.84;5074015;28;20181;-68
2022/06/22 10:52:39;;;;;;;450.05;424.05;;;;;;;21.31;100.00;96356.41;5073273;28;20177;-68
2022/06/22 10:55:10;;;;;;;311.05;293.70;;;;;;;21.29;100.00;96373.84;5074338;28;20215;-68
2022/06/22 10:57:45;;;;;;;312.55;295.45;;;;;;;21.33;100.00;96364.13;5074557;28;20751;-68
2022/06/22 11:00:20;;;;;;;383.77;361.70;;;;;;;21.37;100.00;96365.06;5056453;28;20569;-68
2022/06/22 11:03:21;;;;;;;288.38;272.35;;;;;;;21.32;100.00;96366.00;5074292;28;20189;-67
2022/06/22 11:06:12;;;;;;;349.55;329.50;;;;;;;21.41;100.00;96377.50;4991736;28;20192;-68
2022/06/22 11:08:52;;;;;;;452.88;425.95;;;;;;;21.45;100.00;96370.47;5064578;28;20211;-68
2022/06/22 11:11:35;;;;;;;399.67;376.83;;;;;;;21.41;100.00;96371.38;5073763;28;20187;-68
2022/06/22 11:14:34;;;;;;;352.52;332.83;;;;;;;21.43;100.00;96371.84;5055772;28;20276;-68
2022/06/22 11:17:16;;;;;;;432.42;407.55;;;;;;;21.36;100.00;96369.63;5074018;28;20272;-68
2022/06/22 11:19:48;;;;;;;441.13;415.23;;;;;;;21.36;100.00;96382.94;5070606;28;20612;-67
2022/06/22 11:22:27;;;;;;;386.00;363.35;;;;;;;21.50;100.00;96380.22;5073798;28;20188;-68
2022/06/22 11:25:14;;;;;;;380.77;358.63;;;;;;;21.52;100.00;96380.69;5056295;28;20185;-68
2022/06/22 11:30:51;;;;;;;401.42;378.00;;;;;;;21.90;100.00;96384.47;5073322;28;20664;-69
2022/06/22 11:33:44;;;;;;;531.50;499.95;;;;;;;21.80;100.00;96386.63;5070999;28;20219;-69
2022/06/22 11:36:44;;;;;;;543.90;512.45;;;;;;;21.84;100.00;96376.94;5072593;28;20200;-69
2022/06/22 11:39:24;;;;;;;539.10;507.40;;;;;;;22.18;100.00;96382.38;5072222;28;20228;-69
2022/06/22 11:42:01;;;;;;;389.15;366.63;;;;;;;22.32;100.00;96377.72;5072949;28;20342;-68
2022/06/22 11:48:05;;;;;;;408.25;384.25;;;;;;;21.89;100.00;96379.44;5034831;28;20684;-68
2022/06/22 11:50:33;;;;;;;520.05;489.52;;;;;;;21.89;100.00;96379.44;5072745;28;20214;-68
2022/06/22 11:53:26;;;;;;;379.88;357.90;;;;;;;21.92;100.00;96384.94;5072759;28;20192;-68
2022/06/22 11:55:57;;;;;;;465.25;438.58;;;;;;;22.04;100.00;96379.06;5072588;28;20603;-68
2022/06/22 11:58:40;;;;;;;487.50;459.52;;;;;;;22.19;100.00;96386.63;5072123;28;20181;-68
2022/06/22 12:01:27;;;;;;;414.30;390.60;;;;;;;22.27;99.75;96377.06;5072186;28;20278;-67
2022/06/22 12:03:57;;;;;;;452.50;426.90;;;;;;;22.41;100.00;96385.72;5071825;28;20196;-69
2022/06/22 12:06:34;;;;;;;395.77;373.27;;;;;;;22.85;99.88;96371.34;5071334;28;20196;-68
2022/06/22 12:09:28;;;;;;;390.58;368.38;;;;;;;22.89;98.85;96369.63;5054116;28;20689;-69
2022/06/22 12:12:19;;;;;;;394.83;372.13;;;;;;;22.87;98.81;96365.69;5054383;28;20177;-68
2022/06/22 12:15:06;;;;;;;401.65;378.35;;;;;;;22.65;99.79;96351.34;5070302;28;20200;-68